Time;durP1;ratioP1;P1;durP2;ratioP2;P2;SDS_P1;SDS_P2;PMS_P1;PMS_P2;Temp;Humidity;BMP_temperature;BMP_pressure;BME280_temperature;BME280_humidity;BME280_pressure;Samples;Min_cycle;Max_cycle;Signal;HPM_P1;HPM_P2
2022/11/12 00:01:19;;;;;;;25.05;14.32;;;5.60;99.90;;;;;;4903246;29;20055;-67
2022/11/12 00:04:06;;;;;;;18.25;11.18;;;5.60;99.90;;;;;;4902365;29;20056;-67
2022/11/12 00:06:52;;;;;;;22.98;14.15;;;5.50;99.90;;;;;;4909132;29;20056;-67
2022/11/12 00:09:38;;;;;;;26.27;17.00;;;5.50;99.90;;;;;;4913686;29;20415;-66
2022/11/12 00:12:24;;;;;;;21.13;14.13;;;5.50;99.90;;;;;;4913338;29;20544;-67
2022/11/12 00:15:11;;;;;;;20.67;12.10;;;5.50;99.90;;;;;;4913423;29;20048;-67
2022/11/12 00:17:57;;;;;;;18.02;10.90;;;5.50;99.90;;;;;;4912332;29;20040;-67
2022/11/12 00:20:44;;;;;;;15.35;10.10;;;5.50;99.90;;;;;;4913298;29;20084;-67
2022/11/12 00:23:29;;;;;;;17.45;10.82;;;5.50;99.90;;;;;;4905408;29;20065;-66
2022/11/12 00:26:15;;;;;;;16.02;10.55;;;5.40;99.90;;;;;;4913027;29;20063;-66
2022/11/12 00:29:01;;;;;;;15.93;9.98;;;5.30;99.90;;;;;;4913182;29;20689;-66
2022/11/12 00:31:47;;;;;;;13.80;9.00;;;5.30;99.90;;;;;;4913179;29;20047;-66
2022/11/12 00:34:34;;;;;;;17.03;10.10;;;5.30;99.90;;;;;;4872022;29;1178725;-66
2022/11/12 00:37:22;;;;;;;14.43;9.48;;;5.30;99.90;;;;;;4912512;29;20051;-65
2022/11/12 00:40:08;;;;;;;13.13;8.50;;;5.20;99.90;;;;;;4913460;29;20127;-66
2022/11/12 00:42:54;;;;;;;14.48;9.20;;;5.10;99.90;;;;;;4913951;29;20103;-67
2022/11/12 00:45:42;;;;;;;14.35;9.13;;;5.10;99.90;;;;;;4913322;29;20068;-66
2022/11/12 00:48:27;;;;;;;14.75;9.52;;;5.10;99.90;;;;;;4906544;29;20527;-67
2022/11/12 00:51:14;;;;;;;15.40;9.25;;;5.00;99.90;;;;;;4912295;29;20424;-67
2022/11/12 00:54:00;;;;;;;13.52;9.25;;;5.00;99.90;;;;;;4908562;29;20389;-67
2022/11/12 00:56:47;;;;;;;14.68;9.85;;;5.00;99.90;;;;;;4912115;29;20226;-67
2022/11/12 00:59:33;;;;;;;15.23;9.38;;;5.00;99.90;;;;;;4905754;29;20077;-67
2022/11/12 01:02:21;;;;;;;13.45;9.13;;;5.00;99.90;;;;;;4912065;29;20050;-66
2022/11/12 01:05:07;;;;;;;15.20;9.77;;;5.10;99.90;;;;;;4912541;29;20906;-66
2022/11/12 01:07:53;;;;;;;15.48;9.98;;;5.10;99.90;;;;;;4905630;29;20539;-68
2022/11/12 01:10:40;;;;;;;17.52;10.43;;;5.10;99.90;;;;;;4905401;29;20050;-67
2022/11/12 01:13:26;;;;;;;19.90;11.38;;;5.20;99.90;;;;;;4913361;29;20115;-68
2022/11/12 01:16:18;;;;;;;17.77;10.85;;;5.20;99.90;;;;;;4911982;29;20048;-67
2022/11/12 01:19:07;;;;;;;19.25;11.00;;;5.30;99.90;;;;;;4910304;29;20179;-68
2022/11/12 01:21:53;;;;;;;18.35;10.25;;;5.40;99.90;;;;;;4905215;29;20055;-66
2022/11/12 01:24:38;;;;;;;18.08;9.52;;;5.40;99.90;;;;;;4913108;29;20179;-68
2022/11/12 01:27:24;;;;;;;16.85;10.00;;;5.40;99.90;;;;;;4911437;29;20050;-68
2022/11/12 01:30:10;;;;;;;17.38;9.88;;;5.50;99.90;;;;;;4904196;29;20043;-65
2022/11/12 01:32:56;;;;;;;17.23;9.93;;;5.50;99.90;;;;;;4912501;29;20483;-67
2022/11/12 01:35:41;;;;;;;18.30;10.23;;;5.60;99.90;;;;;;4913156;29;20068;-66
2022/11/12 01:38:27;;;;;;;18.00;10.25;;;5.60;99.90;;;;;;4912971;29;20495;-65
2022/11/12 01:41:18;;;;;;;14.93;9.75;;;5.60;99.90;;;;;;4911357;29;20041;-67
2022/11/12 01:44:10;;;;;;;18.13;9.82;;;5.70;99.90;;;;;;4897856;29;20057;-67
2022/11/12 01:47:17;;;;;;;17.13;9.30;;;5.70;99.90;;;;;;4911227;29;20463;-68
2022/11/12 01:50:15;;;;;;;17.48;9.93;;;5.80;99.90;;;;;;4912674;29;20055;-66
2022/11/12 01:53:07;;;;;;;14.50;9.07;;;5.70;99.90;;;;;;4913179;29;20075;-67
2022/11/12 01:55:55;;;;;;;15.82;9.65;;;5.80;99.90;;;;;;4901226;29;20523;-67
2022/11/12 01:58:42;;;;;;;16.35;9.77;;;5.80;99.90;;;;;;4912679;29;20506;-66
2022/11/12 02:01:28;;;;;;;16.35;9.50;;;5.90;99.90;;;;;;4915961;29;20066;-67
2022/11/12 02:04:15;;;;;;;14.48;9.35;;;5.90;99.90;;;;;;4903821;29;20494;-66
2022/11/12 02:07:02;;;;;;;17.73;9.10;;;5.90;99.90;;;;;;4916379;29;20218;-66
2022/11/12 02:09:49;;;;;;;14.32;8.70;;;5.90;99.90;;;;;;4914195;29;20099;-67
2022/11/12 02:15:41;;;;;;;15.30;8.48;;;5.80;99.90;;;;;;4915907;29;20044;-67
2022/11/12 02:18:26;;;;;;;14.18;8.75;;;5.80;99.90;;;;;;4914522;29;20048;-66
2022/11/12 02:21:12;;;;;;;14.80;8.70;;;5.80;99.90;;;;;;4912367;29;20070;-67
2022/11/12 02:24:03;;;;;;;14.27;8.80;;;5.80;99.90;;;;;;4916178;29;20073;-67
2022/11/12 02:26:52;;;;;;;13.80;8.25;;;5.80;99.90;;;;;;4906210;29;20068;-67
2022/11/12 02:29:45;;;;;;;15.77;8.23;;;5.80;99.90;;;;;;4915004;29;20432;-66
2022/11/12 02:32:32;;;;;;;15.85;8.77;;;5.80;99.90;;;;;;4915939;29;20066;-67
2022/11/12 02:35:18;;;;;;;12.02;7.43;;;5.70;99.90;;;;;;4915977;29;20385;-67
2022/11/12 02:38:05;;;;;;;12.40;7.07;;;5.70;99.90;;;;;;4914667;29;20111;-66
2022/11/12 02:40:52;;;;;;;12.82;7.40;;;5.70;99.90;;;;;;4914497;29;20043;-66
2022/11/12 02:43:39;;;;;;;11.80;7.75;;;5.80;99.90;;;;;;4915439;29;20127;-67
2022/11/12 02:46:26;;;;;;;12.50;7.63;;;5.70;99.90;;;;;;4915384;29;20067;-67
2022/11/12 02:49:11;;;;;;;12.55;7.53;;;5.70;99.90;;;;;;4905538;29;20115;-67
2022/11/12 02:51:57;;;;;;;12.57;7.53;;;5.70;99.90;;;;;;4915466;29;20399;-66
2022/11/12 02:54:43;;;;;;;12.27;7.57;;;5.70;99.90;;;;;;4915476;29;20589;-66
2022/11/12 02:57:29;;;;;;;13.02;7.60;;;5.70;99.90;;;;;;4915844;29;20039;-66
2022/11/12 03:00:17;;;;;;;11.25;7.03;;;5.70;99.90;;;;;;4911166;29;20532;-67
2022/11/12 03:03:03;;;;;;;11.75;7.07;;;5.70;99.90;;;;;;4915080;29;20044;-67
2022/11/12 03:05:58;;;;;;;11.07;6.50;;;5.80;99.90;;;;;;4914091;29;20059;-67
2022/11/12 03:08:44;;;;;;;10.73;6.75;;;5.80;99.90;;;;;;4911070;29;20052;-67
2022/11/12 03:11:29;;;;;;;9.35;6.75;;;5.70;99.90;;;;;;4913932;29;20508;-67
2022/11/12 03:14:16;;;;;;;10.32;7.13;;;5.80;99.90;;;;;;4911187;29;20049;-67
2022/11/12 03:17:02;;;;;;;12.00;6.93;;;5.80;99.90;;;;;;4915395;29;20073;-67
2022/11/12 03:19:48;;;;;;;13.32;6.90;;;5.80;99.90;;;;;;4909386;29;20087;-67
2022/11/12 03:22:35;;;;;;;10.40;6.72;;;5.80;99.90;;;;;;4915447;29;20054;-67
2022/11/12 03:25:20;;;;;;;10.18;6.55;;;5.80;99.90;;;;;;4914689;29;20047;-66
2022/11/12 03:28:09;;;;;;;9.65;6.18;;;5.80;99.90;;;;;;4908540;29;20439;-67
2022/11/12 03:30:59;;;;;;;10.15;6.78;;;5.80;99.90;;;;;;4910527;29;20047;-67
2022/11/12 03:33:45;;;;;;;9.98;6.88;;;5.80;99.90;;;;;;4913909;29;20120;-67
2022/11/12 03:36:31;;;;;;;11.93;7.05;;;5.80;99.90;;;;;;4914678;29;20067;-67
2022/11/12 03:39:17;;;;;;;10.50;6.28;;;5.70;99.90;;;;;;4914775;29;20051;-65
2022/11/12 03:42:03;;;;;;;11.65;7.28;;;5.70;99.90;;;;;;4914719;29;20102;-67
2022/11/12 03:44:49;;;;;;;11.10;7.00;;;5.70;99.90;;;;;;4914417;29;20134;-66
2022/11/12 03:47:35;;;;;;;11.20;6.55;;;5.70;99.90;;;;;;4914901;29;20059;-65
2022/11/12 03:50:24;;;;;;;11.02;7.05;;;5.70;99.90;;;;;;4910167;29;20060;-65
2022/11/12 03:53:10;;;;;;;12.93;7.55;;;5.70;99.90;;;;;;4914563;29;20052;-68
2022/11/12 03:55:56;;;;;;;11.50;7.63;;;5.80;99.90;;;;;;4913888;29;20421;-66
2022/11/12 03:58:41;;;;;;;11.65;7.10;;;5.70;99.90;;;;;;4911832;29;20080;-66
2022/11/12 04:01:27;;;;;;;10.57;7.20;;;5.70;99.90;;;;;;4912956;29;20511;-67
2022/11/12 04:04:13;;;;;;;9.80;6.70;;;5.70;99.90;;;;;;4910045;29;20047;-66
2022/11/12 04:10:04;;;;;;;10.65;6.63;;;5.60;99.90;;;;;;4914104;29;20370;-67
2022/11/12 04:22:17;;;;;;;9.88;6.78;;;5.50;99.90;;;;;;4900696;29;20512;-67
2022/11/12 04:28:07;;;;;;;11.98;6.90;;;5.40;99.90;;;;;;4913987;29;20071;-67
2022/11/12 04:30:53;;;;;;;9.25;6.35;;;5.30;99.90;;;;;;4912025;29;20435;-67
2022/11/12 04:33:39;;;;;;;10.95;7.10;;;5.30;99.90;;;;;;4911980;29;20055;-67
2022/11/12 04:36:25;;;;;;;12.45;8.07;;;5.20;99.90;;;;;;4913719;29;20511;-66
2022/11/12 04:39:11;;;;;;;12.07;6.85;;;5.10;99.90;;;;;;4904261;29;20534;-66
2022/11/12 04:45:06;;;;;;;12.13;7.30;;;5.00;99.90;;;;;;4912056;29;20044;-66
2022/11/12 04:47:52;;;;;;;13.48;7.50;;;4.90;99.90;;;;;;4911850;29;20051;-66
2022/11/12 04:50:38;;;;;;;12.27;7.45;;;4.90;99.90;;;;;;4912682;29;20256;-66
2022/11/12 04:53:25;;;;;;;13.50;7.78;;;4.80;99.90;;;;;;4914069;29;20049;-66
2022/11/12 04:56:11;;;;;;;13.32;7.57;;;4.80;99.90;;;;;;4913485;29;20432;-66
2022/11/12 04:58:57;;;;;;;14.55;7.20;;;4.70;99.90;;;;;;4913688;29;20071;-66
2022/11/12 05:01:42;;;;;;;15.00;7.65;;;4.70;99.90;;;;;;4907343;29;20055;-66
2022/11/12 05:04:28;;;;;;;13.75;7.43;;;4.70;99.90;;;;;;4913139;29;20063;-67
2022/11/12 05:07:15;;;;;;;14.23;8.05;;;4.60;99.90;;;;;;4911603;29;20571;-66
2022/11/12 05:10:01;;;;;;;15.90;8.98;;;4.60;99.90;;;;;;4911586;29;20503;-66
2022/11/12 05:12:47;;;;;;;14.80;8.30;;;4.50;99.90;;;;;;4910889;29;20554;-66
2022/11/12 05:15:33;;;;;;;14.52;8.45;;;4.50;99.90;;;;;;4910549;29;20119;-65
2022/11/12 05:18:19;;;;;;;13.15;8.60;;;4.50;99.90;;;;;;4912080;29;20055;-65
2022/11/12 05:22:03;;;;;;;13.65;8.30;;;4.40;99.90;;;;;;4912261;29;20051;-66
2022/11/12 05:24:11;;;;;;;14.75;8.63;;;4.40;99.90;;;;;;4905658;29;20664;-66
2022/11/12 05:27:19;;;;;;;13.30;7.90;;;4.40;99.90;;;;;;4910422;29;20044;-66
2022/11/12 05:30:06;;;;;;;12.07;8.10;;;4.30;99.90;;;;;;4912494;29;20063;-66
2022/11/12 05:32:52;;;;;;;14.85;8.98;;;4.30;99.90;;;;;;4911789;29;20047;-66
2022/11/12 05:35:38;;;;;;;13.35;8.40;;;4.30;99.90;;;;;;4913845;29;20117;-66
2022/11/12 05:38:24;;;;;;;11.90;8.15;;;4.20;99.90;;;;;;4916190;29;20043;-66
2022/11/12 05:41:11;;;;;;;13.27;8.00;;;4.20;99.90;;;;;;4915248;29;20364;-67
2022/11/12 05:44:03;;;;;;;;;;;4.20;99.90;;;;;;4912368;29;20495;-67
2022/11/12 05:46:49;;;;;;;13.23;8.07;;;4.20;99.90;;;;;;4905324;29;20006;-67
2022/11/12 05:49:35;;;;;;;12.27;7.45;;;4.20;99.90;;;;;;4913968;29;20452;-66
2022/11/12 05:52:21;;;;;;;12.35;7.53;;;4.20;99.90;;;;;;4908191;29;20411;-66
2022/11/12 05:55:10;;;;;;;11.65;7.40;;;4.20;99.90;;;;;;4902821;29;20041;-66
2022/11/12 05:58:03;;;;;;;12.57;8.23;;;4.20;99.90;;;;;;4906339;29;20487;-67
2022/11/12 06:00:49;;;;;;;11.32;7.80;;;4.20;99.90;;;;;;4914339;29;20104;-66
2022/11/12 06:03:35;;;;;;;10.73;7.32;;;4.10;99.90;;;;;;4904419;29;20184;-66
2022/11/12 06:06:22;;;;;;;13.07;7.93;;;4.20;99.90;;;;;;4903869;29;20040;-66
2022/11/12 06:09:08;;;;;;;13.45;8.00;;;4.10;99.90;;;;;;4903180;29;20418;-66
2022/11/12 06:11:54;;;;;;;12.20;7.60;;;4.10;99.90;;;;;;4903621;29;20424;-67
2022/11/12 06:14:41;;;;;;;10.10;7.00;;;4.10;99.90;;;;;;4905915;29;20048;-65
2022/11/12 06:17:26;;;;;;;14.70;7.93;;;4.10;99.90;;;;;;4915144;29;20048;-66
2022/11/12 06:20:12;;;;;;;12.65;8.13;;;4.10;99.90;;;;;;4914411;29;20040;-68
2022/11/12 06:22:58;;;;;;;12.70;7.47;;;4.10;99.90;;;;;;4915049;29;20055;-67
2022/11/12 06:25:45;;;;;;;15.55;9.45;;;4.10;99.90;;;;;;4914942;29;20056;-67
2022/11/12 06:28:31;;;;;;;16.48;10.13;;;4.10;99.90;;;;;;4911334;29;20066;-67
2022/11/12 06:31:18;;;;;;;12.95;7.97;;;4.10;99.90;;;;;;4915856;29;20130;-67
2022/11/12 06:34:03;;;;;;;13.32;8.10;;;4.00;99.90;;;;;;4914858;29;20048;-67
2022/11/12 06:36:49;;;;;;;11.07;7.45;;;4.00;99.90;;;;;;4915515;29;20127;-67
2022/11/12 06:39:35;;;;;;;12.20;7.68;;;4.00;99.90;;;;;;4912513;29;20555;-67
2022/11/12 06:42:21;;;;;;;12.32;7.57;;;4.00;99.90;;;;;;4905475;29;20415;-68
2022/11/12 06:45:07;;;;;;;11.30;7.68;;;4.00;99.90;;;;;;4911784;29;20055;-68
2022/11/12 06:47:57;;;;;;;12.43;6.95;;;4.00;99.90;;;;;;4915378;29;20077;-65
2022/11/12 06:50:43;;;;;;;11.60;7.57;;;4.00;99.90;;;;;;4914197;29;20419;-67
2022/11/12 06:53:29;;;;;;;18.13;8.25;;;4.10;99.90;;;;;;4914317;29;20051;-66
2022/11/12 06:56:15;;;;;;;13.35;8.13;;;4.10;99.90;;;;;;4914983;29;20046;-66
2022/11/12 06:59:01;;;;;;;12.93;7.90;;;4.20;99.90;;;;;;4913988;29;20056;-66
2022/11/12 07:01:48;;;;;;;12.63;7.40;;;4.20;99.90;;;;;;4910838;29;20202;-68
2022/11/12 07:04:33;;;;;;;15.02;7.88;;;4.20;99.90;;;;;;4913651;29;20052;-68
2022/11/12 07:07:19;;;;;;;12.00;7.60;;;4.30;99.90;;;;;;4911591;29;20047;-67
2022/11/12 07:10:06;;;;;;;14.35;7.38;;;4.30;99.90;;;;;;4911485;29;20208;-67
2022/11/12 07:12:53;;;;;;;15.07;7.30;;;4.40;99.90;;;;;;4909044;29;20031;-69
2022/11/12 07:15:39;;;;;;;12.35;6.95;;;4.50;99.90;;;;;;4908341;29;20260;-67
2022/11/12 07:18:25;;;;;;;10.68;6.90;;;4.60;99.90;;;;;;4913110;29;20397;-67
2022/11/12 07:21:14;;;;;;;11.82;7.25;;;4.70;99.90;;;;;;4914030;29;20052;-67
2022/11/12 07:24:00;;;;;;;11.30;6.60;;;4.80;99.90;;;;;;4912300;29;20048;-66
2022/11/12 07:26:46;;;;;;;9.85;6.25;;;4.90;99.90;;;;;;4907838;29;20055;-66
2022/11/12 07:29:32;;;;;;;13.10;7.57;;;5.00;99.90;;;;;;4914490;29;20052;-67
2022/11/12 07:32:32;;;;;;;10.68;7.18;;;5.10;99.90;;;;;;4912943;29;20051;-66
2022/11/12 07:35:25;;;;;;;9.48;6.20;;;5.10;99.90;;;;;;4909855;29;20158;-66
2022/11/12 07:38:11;;;;;;;11.93;6.95;;;5.20;99.90;;;;;;4914554;29;20123;-67
2022/11/12 07:41:01;;;;;;;12.73;6.88;;;5.30;99.90;;;;;;4907944;29;20102;-67
2022/11/12 07:43:49;;;;;;;10.35;6.95;;;5.50;99.90;;;;;;4915769;29;20050;-66
2022/11/12 07:46:35;;;;;;;10.48;6.85;;;5.60;99.90;;;;;;4905169;29;20160;-66
2022/11/12 07:49:21;;;;;;;10.70;6.88;;;5.60;99.90;;;;;;4913070;29;20073;-66
2022/11/12 07:52:06;;;;;;;10.90;6.50;;;5.70;99.90;;;;;;4910515;29;20043;-67
2022/11/12 07:54:53;;;;;;;11.07;7.20;;;5.70;99.90;;;;;;4914192;29;20500;-68
2022/11/12 07:57:38;;;;;;;20.55;12.27;;;5.80;99.90;;;;;;4912770;29;20047;-66
2022/11/12 08:00:24;;;;;;;16.05;9.60;;;5.90;99.90;;;;;;4910328;29;20157;-66
2022/11/12 08:03:10;;;;;;;13.43;8.68;;;6.00;99.90;;;;;;4901635;29;20067;-68
2022/11/12 08:05:59;;;;;;;11.98;6.95;;;6.10;99.90;;;;;;4907367;29;20055;-67
2022/11/12 08:08:45;;;;;;;9.10;6.60;;;6.20;99.90;;;;;;4904766;29;20634;-68
2022/11/12 08:11:32;;;;;;;12.18;7.47;;;6.40;99.90;;;;;;4901156;29;20092;-68
2022/11/12 08:14:18;;;;;;;11.10;7.07;;;6.40;99.90;;;;;;4902828;29;20397;-65
2022/11/12 08:17:04;;;;;;;10.73;7.00;;;6.50;99.90;;;;;;4894750;29;20051;-66
2022/11/12 08:19:54;;;;;;;11.20;7.53;;;6.60;99.90;;;;;;4902009;29;20055;-66
2022/11/12 08:22:40;;;;;;;10.52;6.95;;;6.60;99.90;;;;;;4911741;29;20122;-66
2022/11/12 08:25:34;;;;;;;10.68;7.47;;;6.80;99.90;;;;;;4912117;29;20080;-66
2022/11/12 08:28:19;;;;;;;10.55;7.35;;;7.10;99.90;;;;;;4912024;29;20039;-65
2022/11/12 08:31:09;;;;;;;10.10;7.18;;;7.20;99.90;;;;;;4912231;29;20039;-67
2022/11/12 08:33:54;;;;;;;10.57;7.22;;;7.40;99.90;;;;;;4906221;29;20047;-67
2022/11/12 08:36:40;;;;;;;12.77;7.50;;;7.50;99.90;;;;;;4912275;29;20041;-67
2022/11/12 08:39:26;;;;;;;11.20;7.85;;;7.70;99.90;;;;;;4912563;29;20036;-68
2022/11/12 08:42:12;;;;;;;11.40;7.30;;;7.90;99.90;;;;;;4912460;29;20523;-67
2022/11/12 08:44:58;;;;;;;11.73;7.75;;;8.10;99.90;;;;;;4906821;29;20150;-68
2022/11/12 08:47:44;;;;;;;9.57;7.45;;;8.20;99.90;;;;;;4908157;29;20173;-67
2022/11/12 08:50:30;;;;;;;11.63;7.35;;;8.40;99.90;;;;;;4910276;29;20047;-68
2022/11/12 08:53:16;;;;;;;11.52;7.70;;;8.60;99.90;;;;;;4900410;29;20044;-67
2022/11/12 08:56:03;;;;;;;13.15;7.35;;;8.80;99.90;;;;;;4908381;29;20150;-68
2022/11/12 08:58:49;;;;;;;9.77;7.00;;;9.10;99.90;;;;;;4901826;29;20128;-67
2022/11/12 09:01:35;;;;;;;12.13;7.63;;;9.30;99.90;;;;;;4905453;29;20396;-68
2022/11/12 09:04:21;;;;;;;18.67;9.88;;;9.30;99.90;;;;;;4912394;29;20207;-67
2022/11/12 09:07:07;;;;;;;12.07;7.88;;;9.50;99.90;;;;;;4910203;29;20503;-67
2022/11/12 09:09:54;;;;;;;12.93;7.80;;;9.70;99.90;;;;;;4906693;29;20075;-66
2022/11/12 09:12:40;;;;;;;12.00;7.93;;;9.80;99.90;;;;;;4914861;29;20512;-67
2022/11/12 09:15:27;;;;;;;9.93;7.18;;;10.00;99.90;;;;;;4914492;29;20036;-67
2022/11/12 09:18:23;;;;;;;9.10;7.38;;;10.10;99.90;;;;;;4906534;29;20138;-67
2022/11/12 09:21:11;;;;;;;11.70;7.80;;;10.40;99.90;;;;;;4914265;29;20051;-67
2022/11/12 09:23:57;;;;;;;11.90;6.80;;;10.40;99.90;;;;;;4906631;29;20160;-68
2022/11/12 09:26:43;;;;;;;12.35;7.43;;;10.40;99.90;;;;;;4915493;29;20059;-67
2022/11/12 09:29:29;;;;;;;9.88;7.28;;;10.40;99.90;;;;;;4915168;29;20475;-67
2022/11/12 09:32:15;;;;;;;9.05;6.53;;;10.50;99.90;;;;;;4914244;29;20398;-67
2022/11/12 09:35:01;;;;;;;9.77;7.53;;;10.50;99.90;;;;;;4915218;29;20147;-68
2022/11/12 09:37:47;;;;;;;12.35;8.48;;;10.60;99.90;;;;;;4916133;29;20039;-68
2022/11/12 09:41:08;;;;;;;14.98;10.60;;;10.70;99.90;;;;;;4916850;29;20071;-67
2022/11/12 09:44:02;;;;;;;12.98;8.98;;;10.70;99.90;;;;;;4911282;29;20067;-67
2022/11/12 09:47:01;;;;;;;15.35;10.15;;;10.70;99.90;;;;;;4905800;29;20067;-67
2022/11/12 09:49:55;;;;;;;13.13;9.38;;;10.70;99.90;;;;;;4909940;29;20056;-68
2022/11/12 09:52:43;;;;;;;13.07;9.50;;;11.00;99.90;;;;;;4923741;29;20048;-68
2022/11/12 09:55:40;;;;;;;15.93;9.55;;;11.10;99.90;;;;;;4913233;29;20067;-68
2022/11/12 09:58:26;;;;;;;14.18;8.57;;;11.30;99.90;;;;;;4912749;29;20097;-67
2022/11/12 10:01:33;;;;;;;11.32;7.93;;;11.50;99.90;;;;;;4908904;29;20387;-67
2022/11/12 10:04:43;;;;;;;11.80;8.55;;;11.50;99.90;;;;;;4912042;29;20055;-66
2022/11/12 10:07:35;;;;;;;13.23;9.95;;;11.70;99.90;;;;;;4912663;29;20443;-67
2022/11/12 10:10:40;;;;;;;13.05;8.48;;;11.80;99.90;;;;;;4904835;29;20131;-67
2022/11/12 10:13:52;;;;;;;11.02;8.18;;;11.80;99.90;;;;;;4914789;29;20043;-67
2022/11/12 10:17:07;;;;;;;11.25;7.15;;;12.10;99.90;;;;;;4914924;29;20040;-68
2022/11/12 10:20:28;;;;;;;12.50;8.05;;;12.20;99.90;;;;;;4911780;29;20115;-68
2022/11/12 10:23:25;;;;;;;11.00;8.13;;;12.20;99.90;;;;;;4901524;29;20060;-67
2022/11/12 10:26:14;;;;;;;16.50;11.23;;;12.10;99.90;;;;;;4911158;29;20072;-68
2022/11/12 10:29:31;;;;;;;15.80;10.82;;;12.30;99.90;;;;;;4913432;29;20473;-68
2022/11/12 10:32:17;;;;;;;12.15;8.40;;;12.40;99.90;;;;;;4913128;29;20040;-67
2022/11/12 10:35:03;;;;;;;13.32;7.90;;;12.70;99.90;;;;;;4915557;29;20067;-67
2022/11/12 10:38:05;;;;;;;12.02;8.45;;;12.80;99.90;;;;;;4915817;29;20048;-66
2022/11/12 10:40:51;;;;;;;11.70;8.73;;;12.90;99.90;;;;;;4910085;29;20375;-68
2022/11/12 10:43:51;;;;;;;15.15;9.23;;;12.90;99.90;;;;;;4910265;29;20172;-66
2022/11/12 10:46:37;;;;;;;12.40;8.77;;;12.90;99.90;;;;;;4904425;29;20474;-67
2022/11/12 10:49:24;;;;;;;14.32;9.50;;;12.80;99.90;;;;;;4915553;29;20071;-68
2022/11/12 10:52:21;;;;;;;12.63;9.02;;;12.80;99.90;;;;;;4915624;29;20047;-67
2022/11/12 10:55:17;;;;;;;13.15;9.02;;;12.90;99.90;;;;;;4913496;29;20048;-67
2022/11/12 10:58:03;;;;;;;15.25;10.45;;;13.00;99.90;;;;;;4915262;29;20095;-68
2022/11/12 11:00:55;;;;;;;17.17;12.27;;;13.10;99.90;;;;;;4915157;29;20519;-68
2022/11/12 11:03:55;;;;;;;17.30;12.82;;;13.40;99.90;;;;;;4915322;29;20059;-68
2022/11/12 11:06:42;;;;;;;15.93;11.77;;;13.60;99.90;;;;;;4913690;29;20199;-68
2022/11/12 11:09:28;;;;;;;19.60;11.23;;;13.80;99.90;;;;;;4915549;29;20497;-67
2022/11/12 11:12:29;;;;;;;12.93;10.18;;;13.90;99.90;;;;;;4914686;29;20036;-67
2022/11/12 11:15:14;;;;;;;15.55;10.40;;;14.30;99.90;;;;;;4911458;29;20044;-68
2022/11/12 11:18:01;;;;;;;14.73;10.60;;;14.50;99.90;;;;;;4906514;29;20495;-67
2022/11/12 11:21:00;;;;;;;16.00;10.18;;;14.40;99.90;;;;;;4915088;29;20048;-67
2022/11/12 11:23:51;;;;;;;11.98;9.95;;;14.70;99.90;;;;;;4914810;29;20044;-68
2022/11/12 11:27:10;;;;;;;15.35;10.85;;;14.70;99.90;;;;;;4907575;29;20044;-68
2022/11/12 11:30:02;;;;;;;15.45;10.18;;;14.50;99.90;;;;;;4905944;29;20455;-68
2022/11/12 11:33:22;;;;;;;16.00;10.60;;;15.00;99.90;;;;;;4910628;29;20044;-67
2022/11/12 11:36:32;;;;;;;16.75;13.55;;;15.10;99.90;;;;;;4907923;29;20570;-68
2022/11/12 11:39:56;;;;;;;17.05;11.35;;;15.40;99.90;;;;;;4905397;29;20115;-67
2022/11/12 11:43:01;;;;;;;15.27;10.90;;;15.80;99.90;;;;;;4915038;29;20048;-69
2022/11/12 11:46:12;;;;;;;13.85;10.32;;;16.10;99.90;;;;;;4909337;29;20479;-69
2022/11/12 11:48:58;;;;;;;14.60;10.40;;;16.10;99.90;;;;;;4907997;29;20047;-69
2022/11/12 11:51:59;;;;;;;13.05;10.25;;;15.90;99.90;;;;;;4914396;29;20056;-69
2022/11/12 11:55:01;;;;;;;16.98;11.38;;;16.00;99.90;;;;;;4914464;29;20085;-68
2022/11/12 11:58:08;;;;;;;13.45;11.13;;;15.80;99.90;;;;;;4910225;29;20048;-68
2022/11/12 12:00:59;;;;;;;12.65;10.40;;;16.10;99.90;;;;;;4908277;29;20040;-67
2022/11/12 12:04:05;;;;;;;13.23;11.23;;;16.70;99.90;;;;;;4910243;29;20130;-66
2022/11/12 12:06:51;;;;;;;14.52;10.65;;;16.50;99.90;;;;;;4911115;29;20048;-67
2022/11/12 12:09:43;;;;;;;14.57;10.63;;;16.80;99.90;;;;;;4912228;29;20044;-69
2022/11/12 12:12:41;;;;;;;15.52;11.98;;;17.40;99.90;;;;;;4914114;29;20063;-68
2022/11/12 12:15:39;;;;;;;14.40;11.13;;;17.50;99.90;;;;;;4904215;29;20044;-67
2022/11/12 12:18:37;;;;;;;13.55;10.95;;;17.80;99.90;;;;;;4911051;29;20150;-66
2022/11/12 12:21:25;;;;;;;16.90;11.32;;;17.80;99.90;;;;;;4911483;29;20598;-67
2022/11/12 12:24:18;;;;;;;16.45;11.13;;;17.90;99.90;;;;;;4909202;29;20097;-67
2022/11/12 12:27:11;;;;;;;14.10;11.70;;;17.90;99.90;;;;;;4911283;29;20043;-68
2022/11/12 12:30:22;;;;;;;15.73;11.20;;;17.80;99.90;;;;;;4897521;29;20058;-68
2022/11/12 12:33:08;;;;;;;14.90;11.25;;;17.80;99.90;;;;;;4901636;29;20055;-68
2022/11/12 12:36:14;;;;;;;13.18;10.68;;;17.90;99.90;;;;;;4913520;29;20511;-68
2022/11/12 12:39:03;;;;;;;14.45;11.75;;;17.60;99.90;;;;;;4912013;29;20425;-67
2022/11/12 12:42:03;;;;;;;14.82;11.65;;;17.30;99.90;;;;;;4913322;29;20047;-68
2022/11/12 12:44:59;;;;;;;14.20;11.10;;;17.20;99.90;;;;;;4906899;29;20472;-67
2022/11/12 12:47:47;;;;;;;14.38;10.57;;;17.20;99.90;;;;;;4909600;29;20088;-68
2022/11/12 12:50:37;;;;;;;12.90;10.77;;;17.30;99.90;;;;;;4910629;29;20071;-67
2022/11/12 12:53:29;;;;;;;15.85;11.70;;;17.30;99.90;;;;;;4906682;29;20500;-68
2022/11/12 12:56:14;;;;;;;13.07;10.77;;;17.10;99.90;;;;;;4909725;29;20060;-68
2022/11/12 12:59:04;;;;;;;19.33;12.18;;;17.20;99.90;;;;;;4898809;29;20044;-67
2022/11/12 13:01:59;;;;;;;14.35;11.60;;;17.70;99.90;;;;;;4899520;29;20052;-67
2022/11/12 13:04:56;;;;;;;14.27;11.70;;;17.80;99.90;;;;;;4911026;29;20047;-69
2022/11/12 13:07:47;;;;;;;15.15;11.65;;;17.70;99.90;;;;;;4912067;29;20048;-67
2022/11/12 13:10:33;;;;;;;14.73;11.18;;;17.60;99.90;;;;;;4908194;29;20079;-68
2022/11/12 13:13:19;;;;;;;17.67;11.77;;;17.70;99.90;;;;;;4912830;29;20072;-68
2022/11/12 13:16:06;;;;;;;13.88;11.27;;;17.80;99.90;;;;;;4909643;29;20052;-68
2022/11/12 13:18:52;;;;;;;14.18;11.23;;;17.90;99.90;;;;;;4905465;29;20043;-68
2022/11/12 13:21:38;;;;;;;14.43;11.57;;;18.10;99.90;;;;;;4907619;29;20095;-69
2022/11/12 13:25:02;;;;;;;15.57;11.80;;;18.10;99.90;;;;;;4911411;29;20059;-68
2022/11/12 13:27:48;;;;;;;15.75;12.38;;;17.90;99.90;;;;;;4909663;29;20056;-67
2022/11/12 13:30:34;;;;;;;16.23;12.20;;;17.90;99.90;;;;;;4912673;29;20060;-68
2022/11/12 13:33:28;;;;;;;14.40;10.32;;;17.80;99.90;;;;;;4900366;29;20526;-68
2022/11/12 13:36:28;;;;;;;14.73;10.95;;;18.00;99.90;;;;;;4905660;29;20399;-68
2022/11/12 13:39:18;;;;;;;14.40;11.15;;;18.20;99.90;;;;;;4910361;29;20051;-68
2022/11/12 13:45:26;;;;;;;17.95;11.98;;;18.20;99.90;;;;;;4900461;29;20575;-68
2022/11/12 13:48:16;;;;;;;15.20;12.35;;;18.10;99.90;;;;;;4912511;29;20499;-68
2022/11/12 13:51:06;;;;;;;16.08;12.35;;;17.80;99.90;;;;;;4910457;29;20654;-68
2022/11/12 13:53:52;;;;;;;15.60;11.82;;;17.50;99.90;;;;;;4910923;29;20467;-68
2022/11/12 13:56:38;;;;;;;19.52;13.25;;;16.90;99.90;;;;;;4904782;29;20108;-68
2022/11/12 13:59:25;;;;;;;19.48;13.55;;;16.60;99.90;;;;;;4911715;29;20065;-68
2022/11/12 14:02:29;;;;;;;19.42;15.05;;;16.20;99.90;;;;;;4913511;29;20051;-68
2022/11/12 14:05:17;;;;;;;16.60;11.90;;;15.80;99.90;;;;;;4911163;29;20063;-69
2022/11/12 14:08:28;;;;;;;15.98;12.95;;;15.80;99.90;;;;;;4913477;29;20047;-69
2022/11/12 14:11:49;;;;;;;16.23;13.27;;;15.60;99.90;;;;;;4905701;29;20053;-68
2022/11/12 14:15:13;;;;;;;15.93;13.05;;;15.20;99.90;;;;;;4905005;29;20059;-68
2022/11/12 14:18:30;;;;;;;19.10;13.52;;;15.10;99.90;;;;;;4896962;29;20055;-68
2022/11/12 14:21:17;;;;;;;21.08;14.30;;;15.10;99.90;;;;;;4904011;29;20050;-69
2022/11/12 14:24:04;;;;;;;18.15;14.23;;;15.00;99.90;;;;;;4905477;29;20075;-68
2022/11/12 14:26:50;;;;;;;21.05;13.40;;;14.90;99.90;;;;;;4899100;29;20071;-67
2022/11/12 14:29:35;;;;;;;17.65;13.13;;;14.80;99.90;;;;;;4912790;29;20070;-67
2022/11/12 14:32:38;;;;;;;15.10;12.70;;;14.50;99.90;;;;;;4909230;29;20085;-67
2022/11/12 14:35:36;;;;;;;16.88;12.65;;;14.30;99.90;;;;;;4906153;29;20094;-68
2022/11/12 14:38:31;;;;;;;16.77;12.15;;;14.20;99.90;;;;;;4909020;29;20036;-67
2022/11/12 14:41:24;;;;;;;21.05;12.80;;;13.90;99.90;;;;;;4912667;29;20059;-67
2022/11/12 14:44:18;;;;;;;20.40;13.85;;;13.90;99.90;;;;;;4914080;29;20074;-66
2022/11/12 14:47:04;;;;;;;21.38;14.88;;;13.70;99.90;;;;;;4911134;29;20051;-67
2022/11/12 14:49:50;;;;;;;19.33;13.98;;;13.30;99.90;;;;;;4911201;29;20512;-67
2022/11/12 14:52:41;;;;;;;19.10;13.90;;;13.10;99.90;;;;;;4913644;29;20083;-67
2022/11/12 14:55:32;;;;;;;17.63;12.93;;;12.90;99.90;;;;;;4913577;29;20051;-67
2022/11/12 14:58:20;;;;;;;18.00;13.80;;;12.60;99.90;;;;;;4905541;29;20416;-66
2022/11/12 15:01:22;;;;;;;19.65;13.15;;;12.50;99.90;;;;;;4924255;29;20072;-70
2022/11/12 15:04:42;;;;;;;22.63;14.07;;;12.20;99.90;;;;;;4905027;29;20418;-68